sensor_id;sensor_type;location;lat;lon;timestamp;P1;durP1;ratioP1;P2;durP2;ratioP2
65477;SDS011;53678;39.642;22.430;2023-12-20T00:00:36;78.78;;;37.20;;
65477;SDS011;53678;39.642;22.430;2023-12-20T00:03:03;73.57;;;34.25;;
65477;SDS011;53678;39.642;22.430;2023-12-20T00:05:29;74.15;;;37.80;;
65477;SDS011;53678;39.642;22.430;2023-12-20T00:07:57;69.00;;;32.45;;
65477;SDS011;53678;39.642;22.430;2023-12-20T00:10:23;61.72;;;32.45;;
65477;SDS011;53678;39.642;22.430;2023-12-20T00:12:48;55.58;;;29.85;;
65477;SDS011;53678;39.642;22.430;2023-12-20T00:15:14;53.35;;;28.67;;
65477;SDS011;53678;39.642;22.430;2023-12-20T00:17:40;48.25;;;27.63;;
65477;SDS011;53678;39.642;22.430;2023-12-20T00:20:06;55.35;;;28.75;;
65477;SDS011;53678;39.642;22.430;2023-12-20T00:22:32;48.60;;;26.00;;
65477;SDS011;53678;39.642;22.430;2023-12-20T00:24:57;54.45;;;28.60;;
65477;SDS011;53678;39.642;22.430;2023-12-20T00:27:23;54.05;;;28.35;;
65477;SDS011;53678;39.642;22.430;2023-12-20T00:29:49;58.05;;;27.67;;
65477;SDS011;53678;39.642;22.430;2023-12-20T00:32:15;71.82;;;29.25;;
65477;SDS011;53678;39.642;22.430;2023-12-20T00:34:42;59.10;;;29.83;;
65477;SDS011;53678;39.642;22.430;2023-12-20T00:37:08;53.15;;;27.27;;
65477;SDS011;53678;39.642;22.430;2023-12-20T00:39:34;55.67;;;28.45;;
65477;SDS011;53678;39.642;22.430;2023-12-20T00:41:59;53.28;;;28.73;;
65477;SDS011;53678;39.642;22.430;2023-12-20T00:44:26;58.05;;;28.38;;
65477;SDS011;53678;39.642;22.430;2023-12-20T00:46:52;50.45;;;30.45;;
65477;SDS011;53678;39.642;22.430;2023-12-20T00:49:18;66.22;;;35.60;;
65477;SDS011;53678;39.642;22.430;2023-12-20T00:51:43;63.53;;;34.53;;
65477;SDS011;53678;39.642;22.430;2023-12-20T00:54:09;71.05;;;40.05;;
65477;SDS011;53678;39.642;22.430;2023-12-20T00:56:35;70.90;;;36.90;;
65477;SDS011;53678;39.642;22.430;2023-12-20T00:59:00;67.65;;;37.53;;
65477;SDS011;53678;39.642;22.430;2023-12-20T01:01:26;77.60;;;40.53;;
65477;SDS011;53678;39.642;22.430;2023-12-20T01:03:52;86.97;;;43.15;;
65477;SDS011;53678;39.642;22.430;2023-12-20T01:06:18;84.50;;;41.97;;
65477;SDS011;53678;39.642;22.430;2023-12-20T01:08:43;84.82;;;45.00;;
65477;SDS011;53678;39.642;22.430;2023-12-20T01:11:09;83.53;;;44.65;;
65477;SDS011;53678;39.642;22.430;2023-12-20T01:13:35;79.20;;;42.10;;
65477;SDS011;53678;39.642;22.430;2023-12-20T01:16:01;79.45;;;43.13;;
65477;SDS011;53678;39.642;22.430;2023-12-20T01:18:27;88.28;;;44.67;;
65477;SDS011;53678;39.642;22.430;2023-12-20T01:20:53;80.93;;;43.55;;
65477;SDS011;53678;39.642;22.430;2023-12-20T01:23:18;96.88;;;50.92;;
65477;SDS011;53678;39.642;22.430;2023-12-20T01:25:44;84.55;;;42.70;;
65477;SDS011;53678;39.642;22.430;2023-12-20T01:28:10;68.55;;;34.15;;
65477;SDS011;53678;39.642;22.430;2023-12-20T01:30:36;56.30;;;29.73;;
65477;SDS011;53678;39.642;22.430;2023-12-20T01:33:01;56.17;;;29.10;;
65477;SDS011;53678;39.642;22.430;2023-12-20T01:35:27;52.53;;;29.70;;
65477;SDS011;53678;39.642;22.430;2023-12-20T01:37:54;49.20;;;29.90;;
65477;SDS011;53678;39.642;22.430;2023-12-20T01:40:22;56.55;;;30.27;;
65477;SDS011;53678;39.642;22.430;2023-12-20T01:42:57;50.65;;;29.15;;
65477;SDS011;53678;39.642;22.430;2023-12-20T01:45:27;50.47;;;28.10;;
65477;SDS011;53678;39.642;22.430;2023-12-20T01:47:57;51.83;;;29.80;;
65477;SDS011;53678;39.642;22.430;2023-12-20T01:50:24;46.40;;;27.58;;
65477;SDS011;53678;39.642;22.430;2023-12-20T01:52:51;47.55;;;27.88;;
65477;SDS011;53678;39.642;22.430;2023-12-20T01:55:18;51.70;;;28.67;;
65477;SDS011;53678;39.642;22.430;2023-12-20T01:57:45;49.35;;;28.23;;
65477;SDS011;53678;39.642;22.430;2023-12-20T02:00:12;39.58;;;23.98;;
65477;SDS011;53678;39.642;22.430;2023-12-20T02:02:39;44.35;;;23.45;;
65477;SDS011;53678;39.642;22.430;2023-12-20T02:05:06;42.55;;;23.35;;
65477;SDS011;53678;39.642;22.430;2023-12-20T02:07:32;39.33;;;23.00;;
65477;SDS011;53678;39.642;22.430;2023-12-20T02:10:01;42.70;;;23.95;;
65477;SDS011;53678;39.642;22.430;2023-12-20T02:12:27;47.65;;;26.10;;
65477;SDS011;53678;39.642;22.430;2023-12-20T02:14:53;47.50;;;26.75;;
65477;SDS011;53678;39.642;22.430;2023-12-20T02:17:19;52.40;;;26.60;;
65477;SDS011;53678;39.642;22.430;2023-12-20T02:19:45;53.53;;;27.33;;
65477;SDS011;53678;39.642;22.430;2023-12-20T02:22:11;46.72;;;23.83;;
65477;SDS011;53678;39.642;22.430;2023-12-20T02:24:37;49.20;;;25.73;;
65477;SDS011;53678;39.642;22.430;2023-12-20T02:27:04;39.45;;;24.30;;
65477;SDS011;53678;39.642;22.430;2023-12-20T02:29:32;38.63;;;21.88;;
65477;SDS011;53678;39.642;22.430;2023-12-20T02:31:58;32.28;;;19.73;;
65477;SDS011;53678;39.642;22.430;2023-12-20T02:34:24;29.92;;;18.65;;
65477;SDS011;53678;39.642;22.430;2023-12-20T02:36:50;32.03;;;20.02;;
65477;SDS011;53678;39.642;22.430;2023-12-20T02:39:16;34.15;;;20.52;;
65477;SDS011;53678;39.642;22.430;2023-12-20T02:41:41;30.33;;;18.83;;
65477;SDS011;53678;39.642;22.430;2023-12-20T02:44:07;37.50;;;19.23;;
65477;SDS011;53678;39.642;22.430;2023-12-20T02:46:33;35.85;;;19.27;;
65477;SDS011;53678;39.642;22.430;2023-12-20T02:48:59;29.05;;;18.00;;
65477;SDS011;53678;39.642;22.430;2023-12-20T02:51:24;30.10;;;17.33;;
65477;SDS011;53678;39.642;22.430;2023-12-20T02:53:50;30.90;;;17.85;;
65477;SDS011;53678;39.642;22.430;2023-12-20T02:56:16;31.75;;;18.25;;
65477;SDS011;53678;39.642;22.430;2023-12-20T02:58:43;29.90;;;17.85;;
65477;SDS011;53678;39.642;22.430;2023-12-20T03:01:10;28.10;;;17.48;;
65477;SDS011;53678;39.642;22.430;2023-12-20T03:03:35;30.23;;;17.58;;
65477;SDS011;53678;39.642;22.430;2023-12-20T03:06:01;28.92;;;17.63;;
65477;SDS011;53678;39.642;22.430;2023-12-20T03:08:26;29.42;;;18.27;;
65477;SDS011;53678;39.642;22.430;2023-12-20T03:10:52;32.50;;;19.23;;
65477;SDS011;53678;39.642;22.430;2023-12-20T03:13:18;28.45;;;18.20;;
65477;SDS011;53678;39.642;22.430;2023-12-20T03:15:45;31.90;;;19.00;;
65477;SDS011;53678;39.642;22.430;2023-12-20T03:18:11;29.65;;;18.65;;
65477;SDS011;53678;39.642;22.430;2023-12-20T03:20:36;35.90;;;20.33;;
65477;SDS011;53678;39.642;22.430;2023-12-20T03:23:02;36.78;;;20.35;;
65477;SDS011;53678;39.642;22.430;2023-12-20T03:25:28;32.22;;;19.45;;
65477;SDS011;53678;39.642;22.430;2023-12-20T03:27:54;34.25;;;19.65;;
65477;SDS011;53678;39.642;22.430;2023-12-20T03:30:20;38.97;;;22.40;;
65477;SDS011;53678;39.642;22.430;2023-12-20T03:32:46;35.53;;;21.75;;
65477;SDS011;53678;39.642;22.430;2023-12-20T03:35:12;42.38;;;23.27;;
65477;SDS011;53678;39.642;22.430;2023-12-20T03:37:38;45.33;;;22.60;;
65477;SDS011;53678;39.642;22.430;2023-12-20T03:40:04;48.42;;;22.75;;
65477;SDS011;53678;39.642;22.430;2023-12-20T03:42:30;52.15;;;25.58;;
65477;SDS011;53678;39.642;22.430;2023-12-20T03:44:56;51.55;;;23.85;;
65477;SDS011;53678;39.642;22.430;2023-12-20T03:47:21;47.33;;;22.23;;
65477;SDS011;53678;39.642;22.430;2023-12-20T03:49:47;36.50;;;19.67;;
65477;SDS011;53678;39.642;22.430;2023-12-20T03:52:14;31.67;;;20.00;;
65477;SDS011;53678;39.642;22.430;2023-12-20T03:54:40;36.83;;;20.17;;
65477;SDS011;53678;39.642;22.430;2023-12-20T03:57:07;31.60;;;18.60;;
65477;SDS011;53678;39.642;22.430;2023-12-20T03:59:36;38.45;;;19.23;;
65477;SDS011;53678;39.642;22.430;2023-12-20T04:02:03;35.60;;;20.17;;
65477;SDS011;53678;39.642;22.430;2023-12-20T04:04:29;39.75;;;21.88;;
65477;SDS011;53678;39.642;22.430;2023-12-20T04:06:55;39.65;;;21.42;;
65477;SDS011;53678;39.642;22.430;2023-12-20T04:09:21;40.45;;;20.92;;
65477;SDS011;53678;39.642;22.430;2023-12-20T04:11:46;42.08;;;23.23;;
65477;SDS011;53678;39.642;22.430;2023-12-20T04:14:12;53.90;;;24.42;;
65477;SDS011;53678;39.642;22.430;2023-12-20T04:16:38;47.42;;;24.10;;
65477;SDS011;53678;39.642;22.430;2023-12-20T04:19:04;46.15;;;23.55;;
65477;SDS011;53678;39.642;22.430;2023-12-20T04:21:30;49.72;;;23.25;;
65477;SDS011;53678;39.642;22.430;2023-12-20T04:23:56;61.70;;;24.60;;
65477;SDS011;53678;39.642;22.430;2023-12-20T04:26:22;40.42;;;23.08;;
65477;SDS011;53678;39.642;22.430;2023-12-20T04:28:48;40.22;;;24.23;;
65477;SDS011;53678;39.642;22.430;2023-12-20T04:31:14;42.58;;;24.73;;
65477;SDS011;53678;39.642;22.430;2023-12-20T04:33:39;48.63;;;24.50;;
65477;SDS011;53678;39.642;22.430;2023-12-20T04:36:05;42.25;;;21.92;;
65477;SDS011;53678;39.642;22.430;2023-12-20T04:38:31;42.20;;;23.13;;
65477;SDS011;53678;39.642;22.430;2023-12-20T04:40:56;36.70;;;22.45;;
65477;SDS011;53678;39.642;22.430;2023-12-20T04:43:22;38.88;;;22.63;;
65477;SDS011;53678;39.642;22.430;2023-12-20T04:45:48;48.78;;;22.80;;
65477;SDS011;53678;39.642;22.430;2023-12-20T04:48:13;39.35;;;21.52;;
65477;SDS011;53678;39.642;22.430;2023-12-20T04:50:39;36.70;;;22.00;;
65477;SDS011;53678;39.642;22.430;2023-12-20T04:53:05;45.95;;;21.85;;
65477;SDS011;53678;39.642;22.430;2023-12-20T04:55:31;48.88;;;22.05;;
65477;SDS011;53678;39.642;22.430;2023-12-20T04:57:57;34.83;;;19.58;;
65477;SDS011;53678;39.642;22.430;2023-12-20T05:00:23;36.17;;;20.77;;
65477;SDS011;53678;39.642;22.430;2023-12-20T05:02:49;35.22;;;20.75;;
65477;SDS011;53678;39.642;22.430;2023-12-20T05:05:16;40.30;;;20.73;;
65477;SDS011;53678;39.642;22.430;2023-12-20T05:07:43;40.05;;;19.73;;
65477;SDS011;53678;39.642;22.430;2023-12-20T05:10:09;58.85;;;22.92;;
65477;SDS011;53678;39.642;22.430;2023-12-20T05:12:34;46.90;;;23.42;;
65477;SDS011;53678;39.642;22.430;2023-12-20T05:15:00;62.03;;;23.35;;
65477;SDS011;53678;39.642;22.430;2023-12-20T05:17:26;51.15;;;23.30;;
65477;SDS011;53678;39.642;22.430;2023-12-20T05:19:52;47.00;;;21.17;;
65477;SDS011;53678;39.642;22.430;2023-12-20T05:22:18;34.15;;;18.05;;
65477;SDS011;53678;39.642;22.430;2023-12-20T05:24:45;52.40;;;20.80;;
65477;SDS011;53678;39.642;22.430;2023-12-20T05:27:10;41.13;;;20.40;;
65477;SDS011;53678;39.642;22.430;2023-12-20T05:29:37;41.10;;;19.50;;
65477;SDS011;53678;39.642;22.430;2023-12-20T05:32:03;44.58;;;20.85;;
65477;SDS011;53678;39.642;22.430;2023-12-20T05:34:32;41.40;;;19.67;;
65477;SDS011;53678;39.642;22.430;2023-12-20T05:36:59;36.95;;;19.08;;
65477;SDS011;53678;39.642;22.430;2023-12-20T05:39:26;36.13;;;19.67;;
65477;SDS011;53678;39.642;22.430;2023-12-20T05:41:59;57.63;;;23.23;;
65477;SDS011;53678;39.642;22.430;2023-12-20T05:44:25;45.35;;;20.63;;
65477;SDS011;53678;39.642;22.430;2023-12-20T05:46:50;43.35;;;20.70;;
65477;SDS011;53678;39.642;22.430;2023-12-20T05:49:16;33.65;;;20.23;;
65477;SDS011;53678;39.642;22.430;2023-12-20T05:51:42;46.50;;;22.05;;
65477;SDS011;53678;39.642;22.430;2023-12-20T05:54:09;59.22;;;20.35;;
65477;SDS011;53678;39.642;22.430;2023-12-20T05:56:34;50.53;;;20.65;;
65477;SDS011;53678;39.642;22.430;2023-12-20T05:59:02;38.92;;;21.13;;
65477;SDS011;53678;39.642;22.430;2023-12-20T06:01:28;38.17;;;20.85;;
65477;SDS011;53678;39.642;22.430;2023-12-20T06:03:53;48.45;;;22.35;;
65477;SDS011;53678;39.642;22.430;2023-12-20T06:06:19;55.22;;;23.75;;
65477;SDS011;53678;39.642;22.430;2023-12-20T06:08:45;59.55;;;24.75;;
65477;SDS011;53678;39.642;22.430;2023-12-20T06:11:10;52.40;;;25.08;;
65477;SDS011;53678;39.642;22.430;2023-12-20T06:13:36;54.58;;;24.60;;
65477;SDS011;53678;39.642;22.430;2023-12-20T06:16:05;55.97;;;22.27;;
65477;SDS011;53678;39.642;22.430;2023-12-20T06:18:31;44.88;;;21.75;;
65477;SDS011;53678;39.642;22.430;2023-12-20T06:20:57;51.90;;;23.52;;
65477;SDS011;53678;39.642;22.430;2023-12-20T06:23:23;54.78;;;24.10;;
65477;SDS011;53678;39.642;22.430;2023-12-20T06:25:50;62.28;;;24.08;;
65477;SDS011;53678;39.642;22.430;2023-12-20T06:28:15;67.18;;;25.88;;
65477;SDS011;53678;39.642;22.430;2023-12-20T06:30:42;56.85;;;23.38;;
65477;SDS011;53678;39.642;22.430;2023-12-20T06:33:08;47.00;;;21.48;;
65477;SDS011;53678;39.642;22.430;2023-12-20T06:35:35;43.33;;;23.23;;
65477;SDS011;53678;39.642;22.430;2023-12-20T06:38:01;44.80;;;23.10;;
65477;SDS011;53678;39.642;22.430;2023-12-20T06:40:27;50.00;;;23.92;;
65477;SDS011;53678;39.642;22.430;2023-12-20T06:42:54;48.10;;;22.15;;
65477;SDS011;53678;39.642;22.430;2023-12-20T06:45:20;48.90;;;22.42;;
65477;SDS011;53678;39.642;22.430;2023-12-20T06:47:45;43.83;;;21.88;;
65477;SDS011;53678;39.642;22.430;2023-12-20T06:50:11;47.80;;;23.00;;
65477;SDS011;53678;39.642;22.430;2023-12-20T06:52:38;41.10;;;20.88;;
65477;SDS011;53678;39.642;22.430;2023-12-20T06:55:04;47.17;;;20.40;;
65477;SDS011;53678;39.642;22.430;2023-12-20T06:57:31;39.78;;;20.13;;
65477;SDS011;53678;39.642;22.430;2023-12-20T06:59:57;34.08;;;19.67;;
65477;SDS011;53678;39.642;22.430;2023-12-20T07:02:23;37.80;;;20.00;;
65477;SDS011;53678;39.642;22.430;2023-12-20T07:04:48;34.80;;;19.92;;
65477;SDS011;53678;39.642;22.430;2023-12-20T07:07:14;44.35;;;21.17;;
65477;SDS011;53678;39.642;22.430;2023-12-20T07:09:40;49.67;;;22.48;;
65477;SDS011;53678;39.642;22.430;2023-12-20T07:12:08;48.28;;;22.60;;
65477;SDS011;53678;39.642;22.430;2023-12-20T07:14:34;43.22;;;24.77;;
65477;SDS011;53678;39.642;22.430;2023-12-20T07:17:02;46.75;;;23.48;;
65477;SDS011;53678;39.642;22.430;2023-12-20T07:19:28;40.20;;;24.05;;
65477;SDS011;53678;39.642;22.430;2023-12-20T07:21:55;38.03;;;22.80;;
65477;SDS011;53678;39.642;22.430;2023-12-20T07:24:20;45.05;;;25.52;;
65477;SDS011;53678;39.642;22.430;2023-12-20T07:26:46;40.15;;;23.60;;
65477;SDS011;53678;39.642;22.430;2023-12-20T07:29:12;56.42;;;27.23;;
65477;SDS011;53678;39.642;22.430;2023-12-20T07:31:37;45.65;;;27.77;;
65477;SDS011;53678;39.642;22.430;2023-12-20T07:34:05;42.78;;;26.30;;
65477;SDS011;53678;39.642;22.430;2023-12-20T07:36:30;49.85;;;25.98;;
65477;SDS011;53678;39.642;22.430;2023-12-20T07:38:56;42.65;;;25.63;;
65477;SDS011;53678;39.642;22.430;2023-12-20T07:41:22;53.42;;;27.20;;
65477;SDS011;53678;39.642;22.430;2023-12-20T07:43:50;42.38;;;27.15;;
65477;SDS011;53678;39.642;22.430;2023-12-20T07:46:16;51.65;;;28.88;;
65477;SDS011;53678;39.642;22.430;2023-12-20T07:48:42;47.72;;;27.73;;
65477;SDS011;53678;39.642;22.430;2023-12-20T07:51:07;46.20;;;28.02;;
65477;SDS011;53678;39.642;22.430;2023-12-20T07:53:35;65.78;;;33.10;;
65477;SDS011;53678;39.642;22.430;2023-12-20T07:56:01;48.13;;;30.00;;
65477;SDS011;53678;39.642;22.430;2023-12-20T07:58:27;55.42;;;32.97;;
65477;SDS011;53678;39.642;22.430;2023-12-20T08:00:55;63.50;;;34.17;;
65477;SDS011;53678;39.642;22.430;2023-12-20T08:03:21;66.57;;;34.80;;
65477;SDS011;53678;39.642;22.430;2023-12-20T08:05:46;57.13;;;31.25;;
65477;SDS011;53678;39.642;22.430;2023-12-20T08:08:12;46.85;;;29.95;;
65477;SDS011;53678;39.642;22.430;2023-12-20T08:10:38;59.53;;;30.70;;
65477;SDS011;53678;39.642;22.430;2023-12-20T08:13:04;53.13;;;27.55;;
65477;SDS011;53678;39.642;22.430;2023-12-20T08:15:29;46.00;;;28.33;;
65477;SDS011;53678;39.642;22.430;2023-12-20T08:17:55;52.13;;;30.05;;
65477;SDS011;53678;39.642;22.430;2023-12-20T08:20:23;52.60;;;30.60;;
65477;SDS011;53678;39.642;22.430;2023-12-20T08:22:49;45.65;;;28.52;;
65477;SDS011;53678;39.642;22.430;2023-12-20T08:25:14;41.35;;;26.48;;
65477;SDS011;53678;39.642;22.430;2023-12-20T08:27:41;46.90;;;27.52;;
65477;SDS011;53678;39.642;22.430;2023-12-20T08:30:09;50.92;;;26.15;;
65477;SDS011;53678;39.642;22.430;2023-12-20T08:32:35;44.88;;;27.67;;
65477;SDS011;53678;39.642;22.430;2023-12-20T08:35:01;50.70;;;27.30;;
65477;SDS011;53678;39.642;22.430;2023-12-20T08:37:27;53.65;;;29.23;;
65477;SDS011;53678;39.642;22.430;2023-12-20T08:39:55;46.88;;;28.00;;
65477;SDS011;53678;39.642;22.430;2023-12-20T08:42:21;47.55;;;28.27;;
65477;SDS011;53678;39.642;22.430;2023-12-20T08:44:47;53.80;;;29.08;;
65477;SDS011;53678;39.642;22.430;2023-12-20T08:47:12;54.42;;;29.48;;
65477;SDS011;53678;39.642;22.430;2023-12-20T08:49:41;53.42;;;29.60;;
65477;SDS011;53678;39.642;22.430;2023-12-20T08:52:06;45.17;;;29.83;;
65477;SDS011;53678;39.642;22.430;2023-12-20T08:54:32;66.82;;;30.73;;
65477;SDS011;53678;39.642;22.430;2023-12-20T08:56:59;54.42;;;30.17;;
65477;SDS011;53678;39.642;22.430;2023-12-20T08:59:25;45.28;;;28.13;;
65477;SDS011;53678;39.642;22.430;2023-12-20T09:01:51;49.28;;;28.00;;
65477;SDS011;53678;39.642;22.430;2023-12-20T09:04:20;56.17;;;33.45;;
65477;SDS011;53678;39.642;22.430;2023-12-20T09:06:46;53.05;;;31.02;;
65477;SDS011;53678;39.642;22.430;2023-12-20T09:09:12;59.47;;;27.63;;
65477;SDS011;53678;39.642;22.430;2023-12-20T09:11:40;56.97;;;28.45;;
65477;SDS011;53678;39.642;22.430;2023-12-20T09:14:07;47.40;;;28.40;;
65477;SDS011;53678;39.642;22.430;2023-12-20T09:16:34;52.80;;;28.98;;
65477;SDS011;53678;39.642;22.430;2023-12-20T09:19:00;49.85;;;27.42;;
65477;SDS011;53678;39.642;22.430;2023-12-20T09:21:26;79.32;;;35.20;;
65477;SDS011;53678;39.642;22.430;2023-12-20T09:23:51;58.17;;;33.38;;
65477;SDS011;53678;39.642;22.430;2023-12-20T09:26:17;61.05;;;32.25;;
65477;SDS011;53678;39.642;22.430;2023-12-20T09:28:42;46.15;;;30.25;;
65477;SDS011;53678;39.642;22.430;2023-12-20T09:31:08;51.20;;;31.67;;
65477;SDS011;53678;39.642;22.430;2023-12-20T09:33:36;63.65;;;30.83;;
65477;SDS011;53678;39.642;22.430;2023-12-20T09:36:02;48.42;;;28.13;;
65477;SDS011;53678;39.642;22.430;2023-12-20T09:38:28;43.28;;;22.98;;
65477;SDS011;53678;39.642;22.430;2023-12-20T09:40:54;52.35;;;23.58;;
65477;SDS011;53678;39.642;22.430;2023-12-20T09:43:20;45.08;;;24.63;;
65477;SDS011;53678;39.642;22.430;2023-12-20T09:45:52;46.20;;;25.17;;
65477;SDS011;53678;39.642;22.430;2023-12-20T09:48:18;46.45;;;27.80;;
65477;SDS011;53678;39.642;22.430;2023-12-20T09:50:45;43.35;;;23.15;;
65477;SDS011;53678;39.642;22.430;2023-12-20T09:53:13;37.97;;;24.08;;
65477;SDS011;53678;39.642;22.430;2023-12-20T09:55:42;47.47;;;26.15;;
65477;SDS011;53678;39.642;22.430;2023-12-20T09:58:08;50.10;;;25.52;;
65477;SDS011;53678;39.642;22.430;2023-12-20T10:00:37;57.25;;;24.13;;
65477;SDS011;53678;39.642;22.430;2023-12-20T10:03:03;60.00;;;30.05;;
65477;SDS011;53678;39.642;22.430;2023-12-20T10:05:30;85.00;;;39.10;;
65477;SDS011;53678;39.642;22.430;2023-12-20T10:07:57;35.95;;;22.00;;
65477;SDS011;53678;39.642;22.430;2023-12-20T10:10:23;74.65;;;36.35;;
65477;SDS011;53678;39.642;22.430;2023-12-20T10:13:04;42.08;;;23.15;;
65477;SDS011;53678;39.642;22.430;2023-12-20T10:15:33;51.17;;;25.02;;
65477;SDS011;53678;39.642;22.430;2023-12-20T10:18:03;50.50;;;29.30;;
65477;SDS011;53678;39.642;22.430;2023-12-20T10:20:29;47.88;;;26.02;;
65477;SDS011;53678;39.642;22.430;2023-12-20T10:22:57;41.88;;;24.05;;
65477;SDS011;53678;39.642;22.430;2023-12-20T10:25:24;36.33;;;22.67;;
65477;SDS011;53678;39.642;22.430;2023-12-20T10:27:50;47.35;;;25.75;;
65477;SDS011;53678;39.642;22.430;2023-12-20T10:30:42;47.80;;;27.85;;
65477;SDS011;53678;39.642;22.430;2023-12-20T10:33:08;46.95;;;26.88;;
65477;SDS011;53678;39.642;22.430;2023-12-20T10:35:35;49.08;;;25.83;;
65477;SDS011;53678;39.642;22.430;2023-12-20T10:38:03;47.10;;;27.15;;
65477;SDS011;53678;39.642;22.430;2023-12-20T10:40:30;43.28;;;25.17;;
65477;SDS011;53678;39.642;22.430;2023-12-20T10:42:59;44.83;;;25.67;;
65477;SDS011;53678;39.642;22.430;2023-12-20T10:45:26;46.33;;;27.02;;
65477;SDS011;53678;39.642;22.430;2023-12-20T10:47:52;38.85;;;23.23;;
65477;SDS011;53678;39.642;22.430;2023-12-20T10:50:19;42.03;;;24.23;;
65477;SDS011;53678;39.642;22.430;2023-12-20T10:52:45;44.55;;;25.90;;
65477;SDS011;53678;39.642;22.430;2023-12-20T10:55:12;39.35;;;23.83;;
65477;SDS011;53678;39.642;22.430;2023-12-20T10:57:38;43.20;;;23.25;;
65477;SDS011;53678;39.642;22.430;2023-12-20T11:00:05;30.27;;;18.30;;
65477;SDS011;53678;39.642;22.430;2023-12-20T11:02:39;27.23;;;17.38;;
65477;SDS011;53678;39.642;22.430;2023-12-20T11:07:43;37.33;;;19.25;;
65477;SDS011;53678;39.642;22.430;2023-12-20T11:12:43;36.03;;;20.90;;
65477;SDS011;53678;39.642;22.430;2023-12-20T11:15:19;59.75;;;30.60;;
65477;SDS011;53678;39.642;22.430;2023-12-20T11:17:47;34.65;;;20.63;;
65477;SDS011;53678;39.642;22.430;2023-12-20T11:20:20;37.70;;;19.73;;
65477;SDS011;53678;39.642;22.430;2023-12-20T11:22:54;44.60;;;23.08;;
65477;SDS011;53678;39.642;22.430;2023-12-20T11:25:21;58.13;;;26.98;;
65477;SDS011;53678;39.642;22.430;2023-12-20T11:28:06;62.75;;;28.92;;
65477;SDS011;53678;39.642;22.430;2023-12-20T11:30:53;47.95;;;24.75;;
65477;SDS011;53678;39.642;22.430;2023-12-20T11:33:23;42.67;;;23.27;;
65477;SDS011;53678;39.642;22.430;2023-12-20T11:35:51;36.03;;;19.85;;
65477;SDS011;53678;39.642;22.430;2023-12-20T11:38:20;48.35;;;25.48;;
65477;SDS011;53678;39.642;22.430;2023-12-20T11:40:48;87.57;;;40.63;;
65477;SDS011;53678;39.642;22.430;2023-12-20T11:43:31;53.08;;;26.42;;
65477;SDS011;53678;39.642;22.430;2023-12-20T11:46:08;33.53;;;19.23;;
65477;SDS011;53678;39.642;22.430;2023-12-20T11:48:35;31.88;;;17.33;;
65477;SDS011;53678;39.642;22.430;2023-12-20T11:51:02;35.70;;;19.27;;
65477;SDS011;53678;39.642;22.430;2023-12-20T11:53:30;25.05;;;12.68;;
65477;SDS011;53678;39.642;22.430;2023-12-20T11:55:58;25.42;;;13.50;;
65477;SDS011;53678;39.642;22.430;2023-12-20T11:58:24;35.05;;;20.08;;
65477;SDS011;53678;39.642;22.430;2023-12-20T12:00:50;26.13;;;16.25;;
65477;SDS011;53678;39.642;22.430;2023-12-20T12:03:16;22.98;;;14.63;;
65477;SDS011;53678;39.642;22.430;2023-12-20T12:05:46;27.25;;;15.32;;
65477;SDS011;53678;39.642;22.430;2023-12-20T12:08:13;20.55;;;12.35;;
65477;SDS011;53678;39.642;22.430;2023-12-20T12:10:39;19.98;;;11.85;;
65477;SDS011;53678;39.642;22.430;2023-12-20T12:13:06;22.65;;;12.02;;
65477;SDS011;53678;39.642;22.430;2023-12-20T12:15:32;21.42;;;14.05;;
65477;SDS011;53678;39.642;22.430;2023-12-20T12:17:59;23.45;;;15.48;;
65477;SDS011;53678;39.642;22.430;2023-12-20T12:20:25;23.10;;;13.05;;
65477;SDS011;53678;39.642;22.430;2023-12-20T12:23:06;23.15;;;13.48;;
65477;SDS011;53678;39.642;22.430;2023-12-20T12:25:32;19.83;;;10.13;;
65477;SDS011;53678;39.642;22.430;2023-12-20T12:28:02;18.45;;;10.90;;
65477;SDS011;53678;39.642;22.430;2023-12-20T12:30:27;24.30;;;11.90;;
65477;SDS011;53678;39.642;22.430;2023-12-20T12:32:55;16.15;;;9.35;;
65477;SDS011;53678;39.642;22.430;2023-12-20T12:35:21;19.20;;;11.30;;
65477;SDS011;53678;39.642;22.430;2023-12-20T12:37:47;20.77;;;12.25;;
65477;SDS011;53678;39.642;22.430;2023-12-20T12:40:15;27.52;;;12.98;;
65477;SDS011;53678;39.642;22.430;2023-12-20T12:42:42;18.00;;;10.70;;
65477;SDS011;53678;39.642;22.430;2023-12-20T12:45:14;14.82;;;9.63;;
65477;SDS011;53678;39.642;22.430;2023-12-20T12:47:40;18.88;;;9.68;;
65477;SDS011;53678;39.642;22.430;2023-12-20T12:50:06;19.80;;;9.77;;
65477;SDS011;53678;39.642;22.430;2023-12-20T12:52:32;19.10;;;11.18;;
65477;SDS011;53678;39.642;22.430;2023-12-20T12:54:58;25.00;;;14.10;;
65477;SDS011;53678;39.642;22.430;2023-12-20T12:57:24;28.23;;;15.55;;
65477;SDS011;53678;39.642;22.430;2023-12-20T12:59:52;25.20;;;13.15;;
65477;SDS011;53678;39.642;22.430;2023-12-20T13:02:18;22.13;;;12.95;;
65477;SDS011;53678;39.642;22.430;2023-12-20T13:04:44;24.58;;;13.35;;
65477;SDS011;53678;39.642;22.430;2023-12-20T13:07:10;27.33;;;14.63;;
65477;SDS011;53678;39.642;22.430;2023-12-20T13:09:36;22.55;;;14.38;;
65477;SDS011;53678;39.642;22.430;2023-12-20T13:12:02;35.28;;;17.45;;
65477;SDS011;53678;39.642;22.430;2023-12-20T13:14:31;23.00;;;12.23;;
65477;SDS011;53678;39.642;22.430;2023-12-20T13:16:59;18.77;;;10.18;;
65477;SDS011;53678;39.642;22.430;2023-12-20T13:19:26;25.95;;;14.05;;
65477;SDS011;53678;39.642;22.430;2023-12-20T13:21:51;16.77;;;10.23;;
65477;SDS011;53678;39.642;22.430;2023-12-20T13:24:18;15.57;;;9.65;;
65477;SDS011;53678;39.642;22.430;2023-12-20T13:26:43;17.45;;;9.55;;
65477;SDS011;53678;39.642;22.430;2023-12-20T13:29:09;21.50;;;11.32;;
65477;SDS011;53678;39.642;22.430;2023-12-20T13:31:35;22.98;;;13.18;;
65477;SDS011;53678;39.642;22.430;2023-12-20T13:34:02;18.95;;;11.77;;
65477;SDS011;53678;39.642;22.430;2023-12-20T13:36:28;18.67;;;11.13;;
65477;SDS011;53678;39.642;22.430;2023-12-20T13:38:53;18.33;;;11.70;;
65477;SDS011;53678;39.642;22.430;2023-12-20T13:41:19;20.75;;;11.27;;
65477;SDS011;53678;39.642;22.430;2023-12-20T13:43:45;17.23;;;10.65;;
65477;SDS011;53678;39.642;22.430;2023-12-20T13:46:11;19.58;;;10.93;;
65477;SDS011;53678;39.642;22.430;2023-12-20T13:48:36;15.95;;;9.68;;
65477;SDS011;53678;39.642;22.430;2023-12-20T13:51:03;22.88;;;11.45;;
65477;SDS011;53678;39.642;22.430;2023-12-20T13:53:29;23.70;;;12.18;;
65477;SDS011;53678;39.642;22.430;2023-12-20T13:55:54;28.52;;;12.63;;
65477;SDS011;53678;39.642;22.430;2023-12-20T13:58:20;23.83;;;12.00;;
65477;SDS011;53678;39.642;22.430;2023-12-20T14:00:46;22.00;;;10.90;;
65477;SDS011;53678;39.642;22.430;2023-12-20T14:03:11;20.45;;;12.60;;
65477;SDS011;53678;39.642;22.430;2023-12-20T14:05:37;27.73;;;12.63;;
65477;SDS011;53678;39.642;22.430;2023-12-20T14:08:04;26.10;;;11.75;;
65477;SDS011;53678;39.642;22.430;2023-12-20T14:10:30;19.45;;;11.25;;